Time;durP1;ratioP1;P1;durP2;ratioP2;P2;SDS_P1;SDS_P2;PMS_P1;PMS_P2;Temp;Humidity;BMP_temperature;BMP_pressure;BME280_temperature;BME280_humidity;BME280_pressure;Samples;Min_cycle;Max_cycle;Signal;HPM_P1;HPM_P2
2022/10/25 00:02:23;;;;;;;4.97;0.60;;;;;;;14.00;87.81;100402.78;5093095;28;20224;-82
2022/10/25 00:04:49;;;;;;;2.33;0.60;;;;;;;13.99;87.66;100406.41;5086931;28;20205;-81
2022/10/25 00:07:16;;;;;;;3.00;0.70;;;;;;;14.00;87.91;100396.56;5093369;28;20600;-80
2022/10/25 00:09:44;;;;;;;1.93;0.50;;;;;;;14.00;88.13;100396.56;5093674;28;20685;-81
2022/10/25 00:12:10;;;;;;;3.47;0.70;;;;;;;13.99;88.19;100410.94;5093383;28;20747;-83
2022/10/25 00:14:37;;;;;;;1.47;0.60;;;;;;;13.95;88.78;100414.84;5093132;28;20227;-81
2022/10/25 00:17:03;;;;;;;2.87;0.80;;;;;;;13.95;88.64;100409.50;5091241;28;20223;-81
2022/10/25 00:19:30;;;;;;;3.07;0.90;;;;;;;13.97;88.74;100402.19;5093269;28;20212;-81
2022/10/25 00:21:56;;;;;;;1.20;0.80;;;;;;;13.98;88.77;100402.03;5093692;28;20204;-82
2022/10/25 00:24:22;;;;;;;2.53;0.70;;;;;;;13.98;89.22;100404.72;5093389;28;20205;-81
2022/10/25 00:26:50;;;;;;;2.10;0.77;;;;;;;13.96;89.36;100403.16;5093274;28;20215;-81
2022/10/25 00:29:18;;;;;;;2.30;0.67;;;;;;;13.95;89.53;100401.47;5093036;28;20207;-82
2022/10/25 00:31:44;;;;;;;1.60;0.50;;;;;;;13.94;89.76;100397.94;5092979;28;20208;-83
2022/10/25 00:34:11;;;;;;;2.97;0.83;;;;;;;13.92;89.80;100404.38;5092890;28;20204;-81
2022/10/25 00:36:37;;;;;;;1.10;0.60;;;;;;;13.92;89.88;100407.06;5093218;28;20223;-81
2022/10/25 00:39:04;;;;;;;2.37;0.60;;;;;;;13.90;90.09;100410.72;5090032;28;20200;-81
2022/10/25 00:41:32;;;;;;;2.50;0.70;;;;;;;13.88;90.40;100407.31;5092671;28;20207;-81
2022/10/25 00:44:31;;;;;;;1.70;0.60;;;;;;;13.87;90.75;100408.28;5093129;28;20576;-81
2022/10/25 00:47:00;;;;;;;2.23;0.73;;;;;;;13.85;91.01;100407.56;5092537;28;20204;-81
2022/10/25 00:49:26;;;;;;;2.27;0.83;;;;;;;13.83;90.97;100404.13;5092835;28;20681;-82
2022/10/25 00:51:58;;;;;;;2.70;0.70;;;;;;;13.83;90.86;100404.13;5092866;28;20290;-82
2022/10/25 00:54:29;;;;;;;2.50;0.53;;;;;;;13.81;91.23;100414.13;5092736;28;20566;-83
2022/10/25 00:56:59;;;;;;;4.10;0.87;;;;;;;13.80;91.26;100415.09;5086824;28;20193;-82
2022/10/25 00:59:28;;;;;;;2.23;0.70;;;;;;;13.80;91.43;100412.41;5084425;28;20208;-81
2022/10/25 01:01:55;;;;;;;2.07;0.80;;;;;;;13.79;91.62;100420.59;5092355;28;20325;-81
2022/10/25 01:04:27;;;;;;;1.80;0.70;;;;;;;13.79;91.73;100425.94;5092867;28;20208;-81
2022/10/25 01:06:54;;;;;;;3.07;1.10;;;;;;;13.82;91.97;100426.53;5092552;28;20201;-82
2022/10/25 01:09:24;;;;;;;2.37;1.00;;;;;;;13.82;92.45;100425.69;5092392;28;20836;-81
2022/10/25 01:11:50;;;;;;;1.47;0.90;;;;;;;13.82;92.02;100425.69;5092565;28;20254;-82
2022/10/25 01:14:18;;;;;;;2.73;1.10;;;;;;;13.80;92.42;100430.28;5092453;28;20664;-81
2022/10/25 01:16:52;;;;;;;3.40;1.00;;;;;;;13.80;92.61;100443.69;5092636;28;20200;-82
2022/10/25 01:19:36;;;;;;;3.23;0.80;;;;;;;13.79;92.74;100433.97;5092236;28;20206;-81
2022/10/25 01:22:06;;;;;;;4.70;1.33;;;;;;;13.78;93.15;100435.81;5092365;28;20224;-81
2022/10/25 01:25:02;;;;;;;4.20;1.00;;;;;;;13.78;93.14;100429.59;5092260;28;20235;-82
2022/10/25 01:27:48;;;;;;;2.73;1.03;;;;;;;13.79;93.19;100429.44;5084686;28;20686;-82
2022/10/25 01:30:19;;;;;;;4.43;1.13;;;;;;;13.79;93.12;100432.13;5076288;28;20670;-82
2022/10/25 01:33:16;;;;;;;1.10;0.67;;;;;;;13.78;93.25;100440.31;5086819;28;20240;-81
2022/10/25 01:35:48;;;;;;;2.93;0.90;;;;;;;13.75;93.58;100433.38;5092245;28;20203;-83
2022/10/25 01:38:25;;;;;;;2.63;0.80;;;;;;;13.75;93.67;100433.38;5091525;28;20297;-81
2022/10/25 01:41:00;;;;;;;3.90;0.77;;;;;;;13.77;93.60;100423.41;5091910;28;20210;-82
2022/10/25 01:43:38;;;;;;;2.77;0.93;;;;;;;13.74;94.32;100426.31;5092007;28;20220;-81
2022/10/25 01:46:11;;;;;;;3.07;1.00;;;;;;;13.76;93.97;100439.56;5092139;28;20188;-81
2022/10/25 01:48:45;;;;;;;1.77;1.00;;;;;;;13.76;94.17;100436.91;5092574;28;20677;-81
2022/10/25 01:51:16;;;;;;;3.67;0.90;;;;;;;13.75;94.27;100419.97;5091871;28;20205;-81
2022/10/25 01:53:47;;;;;;;3.80;0.80;;;;;;;13.77;94.63;100427.91;5092348;28;20220;-82
2022/10/25 01:56:21;;;;;;;4.50;1.00;;;;;;;13.77;94.47;100426.06;5092147;28;20200;-80
2022/10/25 01:59:02;;;;;;;3.50;0.77;;;;;;;13.78;94.70;100438.47;5092240;28;20270;-80
2022/10/25 02:01:38;;;;;;;4.67;1.00;;;;;;;13.78;94.89;100441.16;5091964;28;20188;-80
2022/10/25 02:04:10;;;;;;;4.40;0.83;;;;;;;13.78;95.22;100443.84;5091299;28;20228;-81
2022/10/25 02:06:45;;;;;;;3.80;1.30;;;;;;;13.78;95.31;100451.88;5091700;28;20200;-81
2022/10/25 02:09:20;;;;;;;9.07;1.03;;;;;;;13.79;95.60;100442.00;5091633;28;20191;-82
2022/10/25 02:11:50;;;;;;;5.10;0.93;;;;;;;13.78;95.62;100443.84;5091736;28;20215;-80
2022/10/25 02:14:23;;;;;;;4.30;1.20;;;;;;;13.77;95.92;100450.16;5091919;28;20207;-83
2022/10/25 02:16:56;;;;;;;4.20;0.73;;;;;;;13.79;96.37;100445.50;5092108;28;20193;-81
2022/10/25 02:19:30;;;;;;;2.47;0.90;;;;;;;13.77;96.64;100444.81;5091834;28;20216;-82
2022/10/25 02:21:59;;;;;;;2.87;0.80;;;;;;;13.75;96.67;100446.75;5091962;28;20634;-82
2022/10/25 02:24:28;;;;;;;3.00;0.87;;;;;;;13.75;96.95;100441.41;5090935;28;20200;-81
2022/10/25 02:26:58;;;;;;;3.67;1.00;;;;;;;13.74;97.07;100442.38;5090323;28;20203;-81
2022/10/25 02:29:27;;;;;;;5.57;1.27;;;;;;;13.73;97.18;100442.50;5091079;28;20218;-82
2022/10/25 02:31:54;;;;;;;5.70;1.17;;;;;;;13.73;97.76;100447.84;5091292;28;20239;-81
2022/10/25 02:34:21;;;;;;;1.37;0.80;;;;;;;13.72;97.76;100441.63;5091171;28;20231;-81
2022/10/25 02:36:49;;;;;;;3.87;1.43;;;;;;;13.74;98.30;100434.34;5091421;28;20215;-82
2022/10/25 02:39:17;;;;;;;2.33;1.10;;;;;;;13.73;98.22;100443.34;5091489;28;20200;-82
2022/10/25 02:41:44;;;;;;;3.37;1.40;;;;;;;13.74;98.77;100444.19;5091728;28;20290;-82
2022/10/25 02:44:10;;;;;;;3.70;1.00;;;;;;;13.74;98.50;100442.38;5091722;28;20226;-82
2022/10/25 02:46:37;;;;;;;3.50;1.23;;;;;;;13.75;98.93;100444.06;5091292;28;20686;-81
2022/10/25 02:49:03;;;;;;;6.97;1.40;;;;;;;13.75;98.68;100446.75;5091633;28;20617;-82
2022/10/25 02:51:29;;;;;;;4.63;1.30;;;;;;;13.77;98.92;100433.25;5090429;28;20713;-82
2022/10/25 02:53:57;;;;;;;4.63;1.13;;;;;;;13.77;99.13;100436.78;5091022;28;20239;-82
2022/10/25 02:56:24;;;;;;;2.47;1.20;;;;;;;13.78;99.08;100443.84;5091284;28;20211;-81
2022/10/25 02:58:52;;;;;;;3.67;1.50;;;;;;;13.78;99.58;100434.94;5090867;28;20558;-82
2022/10/25 03:01:20;;;;;;;2.77;1.20;;;;;;;13.78;99.51;100434.94;5091378;28;20200;-81
2022/10/25 03:03:47;;;;;;;5.80;1.50;;;;;;;13.78;99.67;100443.84;5090606;28;20223;-81
2022/10/25 03:06:14;;;;;;;4.73;1.30;;;;;;;13.79;99.75;100444.69;5092558;28;20659;-81
2022/10/25 03:08:41;;;;;;;5.30;1.40;;;;;;;13.78;99.80;100443.84;5092326;28;20207;-81
2022/10/25 03:11:11;;;;;;;4.07;1.27;;;;;;;13.78;99.76;100443.84;5092443;28;20224;-81
2022/10/25 03:13:37;;;;;;;4.90;1.87;;;;;;;13.78;100.00;100446.50;5092540;28;20220;-82
2022/10/25 03:16:05;;;;;;;4.60;1.80;;;;;;;13.78;99.65;100441.16;5092692;28;20216;-81
2022/10/25 03:18:31;;;;;;;4.63;2.10;;;;;;;13.78;100.00;100451.00;5092613;28;20219;-81
2022/10/25 03:20:59;;;;;;;4.33;1.80;;;;;;;13.76;100.00;100448.47;5092967;28;20297;-81
2022/10/25 03:23:26;;;;;;;6.63;2.17;;;;;;;13.78;100.00;100453.69;5092868;28;20230;-82
2022/10/25 03:25:53;;;;;;;4.40;1.90;;;;;;;13.75;100.00;100448.56;5093029;28;20215;-81
2022/10/25 03:28:21;;;;;;;5.63;1.97;;;;;;;13.75;100.00;100448.56;5092596;28;20207;-81
2022/10/25 03:30:48;;;;;;;4.23;1.80;;;;;;;13.74;100.00;100454.91;5092121;28;20962;-83
2022/10/25 03:33:14;;;;;;;6.20;2.00;;;;;;;13.76;100.00;100466.34;5092168;28;20228;-82
2022/10/25 03:35:41;;;;;;;3.90;1.80;;;;;;;13.77;100.00;100466.22;5091780;28;20200;-81
2022/10/25 03:38:07;;;;;;;6.77;2.00;;;;;;;13.77;100.00;100460.88;5091955;28;20200;-82
2022/10/25 03:40:34;;;;;;;6.13;2.37;;;;;;;13.78;100.00;100467.06;5092264;28;20208;-81
2022/10/25 03:43:01;;;;;;;4.83;2.23;;;;;;;13.78;100.00;100459.91;5091838;28;20299;-81
2022/10/25 03:45:28;;;;;;;4.97;2.40;;;;;;;13.78;100.00;100465.25;5091789;28;20215;-82
2022/10/25 03:47:55;;;;;;;8.27;2.83;;;;;;;13.77;100.00;100471.56;5092365;28;20216;-81
2022/10/25 03:50:21;;;;;;;7.13;3.23;;;;;;;13.77;100.00;100465.38;5091767;28;20205;-82
2022/10/25 03:52:48;;;;;;;7.70;2.80;;;;;;;13.77;100.00;100471.56;5091075;28;20673;-82
2022/10/25 03:55:14;;;;;;;8.43;2.80;;;;;;;13.77;100.00;100474.25;5090955;28;20682;-83
2022/10/25 03:57:41;;;;;;;9.03;3.10;;;;;;;13.80;100.00;100475.81;5091584;28;20655;-82
2022/10/25 04:00:08;;;;;;;7.47;3.00;;;;;;;13.80;100.00;100470.44;5091413;28;20659;-83
2022/10/25 04:02:36;;;;;;;4.50;2.20;;;;;;;13.81;100.00;100477.50;5094363;28;20223;-83
2022/10/25 04:05:03;;;;;;;6.77;3.00;;;;;;;13.81;100.00;100470.34;5096302;28;20212;-82
2022/10/25 04:07:29;;;;;;;6.50;2.57;;;;;;;13.81;100.00;100478.38;5095750;28;20200;-81
2022/10/25 04:09:56;;;;;;;5.57;2.67;;;;;;;13.82;100.00;100474.72;5096024;28;20211;-83
2022/10/25 04:12:22;;;;;;;7.23;2.60;;;;;;;13.82;100.00;100469.34;5095522;28;20232;-81
2022/10/25 04:14:49;;;;;;;7.67;2.80;;;;;;;13.82;100.00;100474.72;5095407;28;20211;-82
2022/10/25 04:17:15;;;;;;;5.97;3.00;;;;;;;13.82;100.00;100466.69;5093991;28;20204;-83
2022/10/25 04:19:43;;;;;;;8.80;2.50;;;;;;;13.82;100.00;100469.34;5094269;28;20246;-81
2022/10/25 04:22:11;;;;;;;8.27;2.50;;;;;;;13.81;100.00;100470.34;5094741;28;20223;-83
2022/10/25 04:24:38;;;;;;;5.30;2.10;;;;;;;13.82;100.00;100479.22;5094372;28;20200;-82
2022/10/25 04:27:04;;;;;;;7.27;2.20;;;;;;;13.81;100.00;100483.72;5095486;28;20230;-83
2022/10/25 04:29:30;;;;;;;8.83;3.07;;;;;;;13.81;100.00;100481.03;5094710;28;20567;-82
2022/10/25 04:31:57;;;;;;;8.70;2.77;;;;;;;13.82;100.00;100487.25;5094434;28;20713;-84
2022/10/25 04:34:23;;;;;;;7.33;2.83;;;;;;;13.81;100.00;100486.41;5095347;28;20210;-82
2022/10/25 04:36:51;;;;;;;5.20;2.67;;;;;;;13.81;100.00;100489.06;5095742;28;20706;-83
2022/10/25 04:39:18;;;;;;;13.57;3.57;;;;;;;13.82;100.00;100489.91;5095530;28;20210;-82
2022/10/25 04:41:44;;;;;;;5.03;2.50;;;;;;;13.81;100.00;100499.78;5095344;28;20204;-81
2022/10/25 04:44:11;;;;;;;6.90;2.50;;;;;;;13.81;100.00;100493.56;5095197;28;20219;-80
2022/10/25 04:46:37;;;;;;;4.27;2.80;;;;;;;13.80;100.00;100497.22;5095153;28;20203;-81
2022/10/25 04:49:04;;;;;;;8.27;3.40;;;;;;;13.81;100.00;100501.59;5094940;28;20669;-83
2022/10/25 04:51:30;;;;;;;5.73;3.13;;;;;;;13.80;100.00;100500.75;5094072;28;20730;-83
2022/10/25 04:53:58;;;;;;;8.90;4.13;;;;;;;13.80;100.00;100500.75;5094279;28;20231;-82
2022/10/25 04:56:24;;;;;;;5.13;3.13;;;;;;;13.81;100.00;100499.78;5094436;28;20208;-81
2022/10/25 04:58:51;;;;;;;10.17;4.23;;;;;;;13.79;100.00;100501.72;5094816;28;20211;-82
2022/10/25 05:01:18;;;;;;;7.07;4.67;;;;;;;13.78;100.00;100508.06;5095156;28;20203;-82
2022/10/25 05:03:45;;;;;;;8.50;5.20;;;;;;;13.78;100.00;100510.75;5095080;28;20713;-82
2022/10/25 05:06:14;;;;;;;11.60;5.43;;;;;;;13.78;100.00;100516.09;5095138;28;20208;-82
2022/10/25 05:08:42;;;;;;;13.17;5.47;;;;;;;13.77;100.00;100510.88;5095377;28;20211;-81
2022/10/25 05:11:11;;;;;;;11.60;5.47;;;;;;;13.77;100.00;100514.41;5095310;28;20690;-82
2022/10/25 05:13:39;;;;;;;6.63;5.53;;;;;;;13.76;100.00;100519.88;5094619;28;20227;-81
2022/10/25 05:16:06;;;;;;;11.27;5.60;;;;;;;13.76;100.00;100523.41;5094246;28;20208;-83
2022/10/25 05:18:33;;;;;;;8.23;6.10;;;;;;;13.75;100.00;100520.84;5089069;28;20212;-83
2022/10/25 05:21:03;;;;;;;10.43;5.47;;;;;;;13.75;100.00;100532.41;5088409;28;20536;-83
2022/10/25 05:23:31;;;;;;;8.53;5.07;;;;;;;13.74;100.00;100525.34;5090941;28;20247;-83
2022/10/25 05:26:02;;;;;;;8.40;5.77;;;;;;;13.74;100.00;100528.03;5087422;28;20207;-83
2022/10/25 05:28:29;;;;;;;6.67;4.40;;;;;;;13.73;100.00;100531.66;5087237;28;20204;-82
2022/10/25 05:30:56;;;;;;;6.83;4.20;;;;;;;13.73;100.00;100518.28;5088575;28;20215;-83
2022/10/25 05:33:22;;;;;;;9.13;4.67;;;;;;;13.74;100.00;100530.69;5086292;28;20228;-82
2022/10/25 05:35:49;;;;;;;7.63;4.27;;;;;;;13.74;100.00;100536.06;5088159;28;20687;-83
2022/10/25 05:38:15;;;;;;;7.57;3.93;;;;;;;13.75;100.00;100531.56;5089424;28;20200;-83
2022/10/25 05:40:42;;;;;;;5.97;3.60;;;;;;;13.76;100.00;100531.44;5085602;28;20196;-83
2022/10/25 05:43:08;;;;;;;8.97;3.70;;;;;;;13.75;100.00;100526.19;5088229;28;20744;-82
2022/10/25 05:45:36;;;;;;;11.53;4.33;;;;;;;13.72;100.00;100532.63;5086466;28;20203;-82
2022/10/25 05:48:03;;;;;;;10.53;4.40;;;;;;;13.73;100.00;100541.53;5089518;28;20208;-83
2022/10/25 05:50:29;;;;;;;7.47;3.90;;;;;;;13.73;100.00;100553.06;5076759;28;20203;-83
2022/10/25 05:52:56;;;;;;;6.10;3.60;;;;;;;13.72;100.00;100545.16;5088598;28;20247;-83
2022/10/25 05:55:22;;;;;;;4.13;2.93;;;;;;;13.73;100.00;100549.53;5087938;28;20240;-83
2022/10/25 05:57:50;;;;;;;7.57;3.43;;;;;;;13.72;100.00;100553.19;5087758;28;20219;-83
2022/10/25 06:00:17;;;;;;;5.37;2.73;;;;;;;13.70;100.00;100547.97;5087524;28;20200;-83
2022/10/25 06:02:45;;;;;;;7.83;3.00;;;;;;;13.70;100.00;100556.00;5089090;28;20231;-83
2022/10/25 06:05:11;;;;;;;8.83;3.03;;;;;;;13.69;100.00;100562.31;5087732;28;20204;-82
2022/10/25 06:07:38;;;;;;;10.17;4.07;;;;;;;13.71;100.00;100559.50;5088681;28;20204;-83
2022/10/25 06:10:05;;;;;;;5.10;3.07;;;;;;;13.70;100.00;100572.03;5088911;28;20203;-83
2022/10/25 06:12:31;;;;;;;11.90;3.67;;;;;;;13.71;100.00;100572.91;5082852;28;20242;-83
2022/10/25 06:14:59;;;;;;;6.93;2.80;;;;;;;13.70;100.00;100577.41;5090217;28;20207;-83
2022/10/25 06:17:26;;;;;;;8.73;2.63;;;;;;;13.69;100.00;100575.69;5089000;28;20295;-84
2022/10/25 06:19:53;;;;;;;7.83;2.70;;;;;;;13.67;100.00;100576.78;5088824;28;20215;-83
2022/10/25 06:22:20;;;;;;;5.63;2.30;;;;;;;13.66;100.00;100583.09;5087865;28;20225;-83
2022/10/25 06:24:46;;;;;;;5.43;2.73;;;;;;;13.68;100.00;100583.84;5088569;28;20204;-83
2022/10/25 06:27:13;;;;;;;5.27;2.73;;;;;;;13.68;100.00;100586.50;5085482;28;20208;-83
2022/10/25 06:29:39;;;;;;;7.73;3.00;;;;;;;13.67;100.00;100587.47;5087414;28;20200;-84
2022/10/25 06:32:06;;;;;;;8.80;2.80;;;;;;;13.69;100.00;100589.06;5089006;28;20224;-83
2022/10/25 06:34:32;;;;;;;8.73;3.00;;;;;;;13.70;100.00;100601.47;5083951;28;20204;-82
2022/10/25 06:37:00;;;;;;;8.47;3.10;;;;;;;13.69;100.00;100594.44;5088031;28;20204;-82
2022/10/25 06:39:26;;;;;;;5.63;3.10;;;;;;;13.69;100.00;100589.06;5090002;28;20210;-84
2022/10/25 06:41:53;;;;;;;6.90;2.70;;;;;;;13.70;100.00;100592.59;5088381;28;20204;-83
2022/10/25 06:44:19;;;;;;;7.90;3.33;;;;;;;13.69;100.00;100597.09;5087721;28;20580;-82
2022/10/25 06:46:46;;;;;;;5.50;3.10;;;;;;;13.71;100.00;100608.53;5084924;28;20213;-82
2022/10/25 06:49:12;;;;;;;7.00;3.47;;;;;;;13.74;100.00;100605.63;5081529;28;20673;-84
2022/10/25 06:51:39;;;;;;;16.90;3.73;;;;;;;13.74;100.00;100610.13;5085905;28;20314;-83
2022/10/25 06:54:08;;;;;;;7.30;3.37;;;;;;;13.74;100.00;100611.00;5089466;28;20228;-82
2022/10/25 06:56:35;;;;;;;5.30;3.00;;;;;;;13.76;100.00;100618.91;5079889;28;20200;-83
2022/10/25 06:59:02;;;;;;;6.23;2.90;;;;;;;13.75;100.00;100619.88;5087333;28;20208;-83
2022/10/25 07:01:29;;;;;;;8.47;3.57;;;;;;;13.76;100.00;100629.63;5086427;28;20200;-83
2022/10/25 07:03:55;;;;;;;7.00;3.60;;;;;;;13.75;100.00;100636.78;5086781;28;20227;-83
2022/10/25 07:06:24;;;;;;;7.73;3.40;;;;;;;13.78;100.00;100641.06;5087717;28;20819;-84
2022/10/25 07:08:54;;;;;;;7.93;3.13;;;;;;;13.78;100.00;100641.06;5089119;28;20600;-83
2022/10/25 07:11:23;;;;;;;9.17;3.80;;;;;;;13.81;99.90;100643.47;5087088;28;20200;-83
2022/10/25 07:13:49;;;;;;;6.77;3.53;;;;;;;13.81;100.00;100649.69;5084691;28;20587;-85
2022/10/25 07:16:18;;;;;;;4.93;2.97;;;;;;;13.81;99.52;100644.31;5084552;28;20708;-85
2022/10/25 07:18:44;;;;;;;5.73;2.90;;;;;;;13.83;99.79;100652.25;5088509;28;20212;-84
2022/10/25 07:21:13;;;;;;;7.43;3.77;;;;;;;13.84;99.79;100654.81;5086145;28;20207;-85
2022/10/25 07:23:41;;;;;;;5.77;3.20;;;;;;;13.84;99.43;100654.81;5089605;28;20224;-83
2022/10/25 07:26:09;;;;;;;8.63;3.70;;;;;;;13.85;99.40;100656.50;5086887;28;20642;-83
2022/10/25 07:28:36;;;;;;;5.37;2.93;;;;;;;13.84;99.54;100656.63;5089063;28;20203;-83
2022/10/25 07:31:03;;;;;;;8.50;3.30;;;;;;;13.84;99.26;100652.13;5087860;28;20204;-83
2022/10/25 07:33:31;;;;;;;10.83;3.37;;;;;;;13.85;99.32;100664.53;5083057;28;20231;-83
2022/10/25 07:35:57;;;;;;;6.40;3.23;;;;;;;13.86;98.99;100668.94;5083842;28;20215;-83
2022/10/25 07:38:23;;;;;;;9.70;3.47;;;;;;;13.85;98.72;100669.03;5092583;28;20212;-82
2022/10/25 07:40:56;;;;;;;8.17;3.63;;;;;;;13.85;98.53;100666.38;5093796;28;20211;-83
2022/10/25 07:43:22;;;;;;;6.23;3.33;;;;;;;13.86;98.90;100668.06;5092217;28;20277;-83
2022/10/25 07:45:51;;;;;;;7.50;3.20;;;;;;;13.86;98.74;100668.94;5092211;28;20651;-82
2022/10/25 07:48:17;;;;;;;7.80;3.57;;;;;;;13.86;98.17;100673.44;5091061;28;20196;-82
2022/10/25 07:50:43;;;;;;;7.73;3.43;;;;;;;13.84;98.31;100675.38;5084760;28;20227;-83
2022/10/25 07:53:10;;;;;;;6.93;4.00;;;;;;;13.86;98.20;100676.09;5087092;28;20582;-83
2022/10/25 07:55:36;;;;;;;8.10;3.77;;;;;;;13.86;98.29;100686.81;5086493;28;20620;-83
2022/10/25 07:58:04;;;;;;;9.13;3.80;;;;;;;13.87;97.90;100681.34;5091714;28;20207;-83
2022/10/25 08:00:31;;;;;;;7.17;3.43;;;;;;;13.88;97.74;100684.88;5092179;28;20606;-83
2022/10/25 08:02:58;;;;;;;8.20;3.47;;;;;;;13.89;98.07;100690.13;5088596;28;20232;-84
2022/10/25 08:05:25;;;;;;;12.90;3.90;;;;;;;13.89;97.38;100698.16;5081959;28;20221;-84
2022/10/25 08:07:51;;;;;;;7.07;3.43;;;;;;;13.92;97.25;100698.88;5084054;28;20746;-83
2022/10/25 08:10:19;;;;;;;7.47;3.73;;;;;;;13.94;97.03;100702.31;5091509;28;20200;-82
2022/10/25 08:12:46;;;;;;;5.73;3.70;;;;;;;13.95;97.42;100696.84;5092387;28;20269;-85
2022/10/25 08:15:12;;;;;;;9.17;4.20;;;;;;;13.99;96.84;100705.47;5088158;28;20763;-84
2022/10/25 08:17:39;;;;;;;11.87;3.60;;;;;;;14.00;96.84;100701.81;5090465;28;20220;-84
2022/10/25 08:20:07;;;;;;;7.43;3.83;;;;;;;14.04;96.49;100703.28;5091033;28;20212;-83
2022/10/25 08:22:34;;;;;;;6.77;4.10;;;;;;;14.07;96.41;100713.78;5080977;28;20216;-83
2022/10/25 08:25:01;;;;;;;8.10;4.20;;;;;;;14.11;96.23;100709.91;5090744;28;20200;-84
2022/10/25 08:27:28;;;;;;;7.90;4.43;;;;;;;14.17;95.91;100712.09;5086982;28;20266;-83
2022/10/25 08:29:54;;;;;;;8.50;4.17;;;;;;;14.25;95.93;100713.22;5085660;28;20674;-84
2022/10/25 08:32:21;;;;;;;5.20;4.10;;;;;;;14.33;95.86;100701.88;5090421;28;20232;-84
2022/10/25 08:34:47;;;;;;;6.10;3.73;;;;;;;14.38;95.48;100705.06;5085471;28;20208;-83
2022/10/25 08:37:15;;;;;;;7.17;3.93;;;;;;;14.43;95.11;100716.31;5085727;28;20204;-84
2022/10/25 08:39:42;;;;;;;6.93;3.60;;;;;;;14.48;94.96;100724.84;5092285;28;20201;-83
2022/10/25 08:42:20;;;;;;;5.77;3.50;;;;;;;14.56;94.61;100722.41;5092765;28;21896;-83
2022/10/25 08:44:55;;;;;;;7.13;4.00;;;;;;;14.65;94.24;100736.94;5087479;28;20211;-83
2022/10/25 08:47:28;;;;;;;6.90;4.20;;;;;;;14.76;94.24;100730.69;5084818;28;20669;-84
2022/10/25 08:49:59;;;;;;;7.87;4.30;;;;;;;14.84;93.10;100733.66;5084586;28;20253;-83
2022/10/25 08:52:34;;;;;;;8.13;4.70;;;;;;;14.93;92.73;100731.06;5085787;28;20228;-83
2022/10/25 08:55:03;;;;;;;6.13;4.30;;;;;;;15.03;92.31;100724.97;5083918;28;20296;-84
2022/10/25 08:57:33;;;;;;;9.20;4.70;;;;;;;15.07;91.11;100742.50;5085053;28;20209;-82
2022/10/25 09:00:06;;;;;;;8.87;4.60;;;;;;;15.11;90.21;100739.47;5085144;28;20206;-83
2022/10/25 09:02:39;;;;;;;7.90;4.73;;;;;;;15.17;89.38;100744.34;5084805;28;20735;-83
2022/10/25 09:05:13;;;;;;;5.13;3.83;;;;;;;15.20;88.46;100744.09;5087699;28;20201;-84
2022/10/25 09:08:03;;;;;;;9.03;4.80;;;;;;;15.21;87.64;100759.22;5085070;28;20204;-84
2022/10/25 09:10:45;;;;;;;8.53;4.40;;;;;;;15.26;87.18;100753.44;5086270;28;20208;-82
2022/10/25 09:13:25;;;;;;;6.93;4.00;;;;;;;15.31;86.56;100753.94;5085728;28;20228;-83
2022/10/25 09:16:04;;;;;;;6.00;3.90;;;;;;;15.36;85.58;100758.94;5089276;28;20259;-84
2022/10/25 09:18:39;;;;;;;6.67;4.30;;;;;;;15.40;85.29;100753.22;5086207;28;20212;-85
2022/10/25 09:21:14;;;;;;;8.47;3.77;;;;;;;15.45;84.67;100752.81;5087140;28;20200;-82
2022/10/25 09:23:49;;;;;;;4.67;3.37;;;;;;;15.50;84.16;100758.66;5080773;28;20216;-83
2022/10/25 09:26:25;;;;;;;6.33;3.10;;;;;;;15.59;83.89;100755.22;5082582;28;20201;-83
2022/10/25 09:29:01;;;;;;;7.20;3.73;;;;;;;15.61;82.36;100753.28;5083109;28;20206;-84
2022/10/25 09:31:31;;;;;;;6.67;3.00;;;;;;;15.64;81.99;100761.09;5079744;28;20206;-84
2022/10/25 09:34:03;;;;;;;6.53;3.40;;;;;;;15.70;81.37;100757.06;5087237;28;20706;-85
2022/10/25 09:36:36;;;;;;;5.90;3.30;;;;;;;15.72;81.13;100747.91;5085678;28;20205;-85
2022/10/25 09:39:11;;;;;;;6.73;3.53;;;;;;;15.76;80.97;100754.72;5083947;28;20642;-84
2022/10/25 09:41:43;;;;;;;5.77;3.60;;;;;;;15.79;80.33;100757.13;5082189;28;20213;-84
2022/10/25 09:44:15;;;;;;;6.80;3.60;;;;;;;15.84;80.18;100762.97;5079458;28;20217;-83
2022/10/25 09:46:45;;;;;;;6.20;3.37;;;;;;;15.85;79.66;100769.19;5082246;28;20224;-83
2022/10/25 09:49:24;;;;;;;6.07;3.10;;;;;;;15.83;79.05;100771.16;5079073;28;20220;-82
2022/10/25 09:51:59;;;;;;;6.07;3.30;;;;;;;15.76;78.49;100775.34;5080396;28;20204;-82
2022/10/25 09:54:32;;;;;;;7.57;3.87;;;;;;;15.74;78.33;100785.38;5079352;28;20220;-84
2022/10/25 09:56:59;;;;;;;5.50;4.20;;;;;;;15.73;78.47;100783.66;5082646;28;21546;-86
2022/10/25 09:59:26;;;;;;;5.67;4.00;;;;;;;15.73;78.60;100789.03;5077709;28;20600;-83
2022/10/25 10:01:53;;;;;;;9.93;4.20;;;;;;;15.76;78.66;100788.78;5075978;28;20203;-81
2022/10/25 10:04:26;;;;;;;5.73;4.70;;;;;;;15.77;78.89;100799.34;5081951;28;20210;-83
2022/10/25 10:06:59;;;;;;;9.57;4.73;;;;;;;15.79;79.14;100793.88;5086040;28;20214;-83
2022/10/25 10:09:30;;;;;;;7.57;5.83;;;;;;;15.79;79.25;100794.72;5083114;28;20211;-84
2022/10/25 10:11:58;;;;;;;5.87;4.80;;;;;;;15.81;79.13;100792.75;5087277;28;20210;-84
2022/10/25 10:14:31;;;;;;;5.47;4.97;;;;;;;15.84;79.46;100797.03;5083470;28;20237;-84
2022/10/25 10:16:59;;;;;;;8.60;4.87;;;;;;;15.83;79.78;100798.88;5083367;28;20540;-84
2022/10/25 10:19:28;;;;;;;7.40;4.93;;;;;;;15.86;79.47;100797.75;5086047;28;20213;-83
2022/10/25 10:21:57;;;;;;;6.63;4.23;;;;;;;15.87;79.10;100789.59;5083328;28;20230;-83
2022/10/25 10:24:29;;;;;;;6.80;4.07;;;;;;;15.87;79.13;100791.41;5081091;28;20202;-83
2022/10/25 10:26:58;;;;;;;5.13;3.83;;;;;;;15.86;79.00;100795.06;5085014;28;20202;-83
2022/10/25 10:29:27;;;;;;;6.40;3.90;;;;;;;15.83;78.98;100796.19;5082539;28;20215;-82
2022/10/25 10:31:55;;;;;;;6.40;3.87;;;;;;;15.85;79.06;100806.81;5082989;28;20707;-82
2022/10/25 10:34:25;;;;;;;6.73;4.17;;;;;;;15.87;79.08;100807.53;5077744;28;20234;-81
2022/10/25 10:37:13;;;;;;;5.93;3.67;;;;;;;15.87;79.14;100815.59;5077856;28;20213;-84
2022/10/25 10:39:49;;;;;;;6.23;3.77;;;;;;;15.86;78.55;100806.69;5078325;28;20221;-84
2022/10/25 10:42:18;;;;;;;4.17;3.37;;;;;;;15.87;78.46;100807.53;5084588;28;20229;-83
2022/10/25 10:45:01;;;;;;;6.93;3.23;;;;;;;15.88;78.34;100806.56;5076257;28;20205;-82
2022/10/25 10:47:33;;;;;;;5.10;3.80;;;;;;;15.86;77.77;100809.34;5080076;28;20563;-83
2022/10/25 10:50:00;;;;;;;4.93;3.70;;;;;;;15.86;77.65;100805.81;5082167;28;20203;-83
2022/10/25 10:52:30;;;;;;;6.70;4.50;;;;;;;15.91;77.75;100814.34;5075124;28;20226;-81
2022/10/25 10:54:59;;;;;;;6.63;4.17;;;;;;;15.96;77.68;100804.91;5080604;28;20225;-83
2022/10/25 10:57:31;;;;;;;7.17;3.97;;;;;;;15.99;77.76;100806.50;5082519;28;20206;-83
2022/10/25 10:59:58;;;;;;;4.47;3.47;;;;;;;16.02;77.71;100803.56;5080797;28;20638;-83
2022/10/25 11:02:33;;;;;;;10.27;3.50;;;;;;;16.06;77.40;100804.16;5076514;28;20234;-84
2022/10/25 11:05:00;;;;;;;9.67;4.20;;;;;;;16.11;77.36;100807.31;5076120;28;20208;-83
2022/10/25 11:07:30;;;;;;;5.23;3.87;;;;;;;16.14;77.27;100813.28;5078187;28;20209;-85
2022/10/25 11:10:22;;;;;;;6.53;4.00;;;;;;;16.16;76.91;100816.69;5086422;28;20857;-85
2022/10/25 11:13:14;;;;;;;4.97;3.53;;;;;;;16.20;76.64;100817.28;5079271;28;20227;-81
2022/10/25 11:16:13;;;;;;;8.43;3.33;;;;;;;16.21;75.92;100816.31;5077458;28;20205;-83
2022/10/25 11:18:50;;;;;;;6.40;4.03;;;;;;;16.18;75.48;100816.56;5068131;28;20233;-83
2022/10/25 11:21:34;;;;;;;5.47;4.07;;;;;;;16.19;75.31;100816.44;5079654;28;20246;-81
2022/10/25 11:24:12;;;;;;;6.57;4.03;;;;;;;16.20;75.61;100814.59;5080147;28;20223;-83
2022/10/25 11:26:50;;;;;;;6.83;4.00;;;;;;;16.21;75.26;100824.38;5072123;28;20204;-82
2022/10/25 11:29:28;;;;;;;6.13;3.77;;;;;;;16.23;75.45;100822.41;5080303;28;20199;-81
2022/10/25 11:32:04;;;;;;;5.73;3.93;;;;;;;16.24;75.51;100822.28;5076781;28;20202;-82
2022/10/25 11:34:42;;;;;;;6.20;4.20;;;;;;;16.28;75.70;100826.41;5077975;28;20246;-82